Time;durP1;ratioP1;P1;durP2;ratioP2;P2;SDS_P1;SDS_P2;PMS_P1;PMS_P2;Temp;Humidity;BMP_temperature;BMP_pressure;BME280_temperature;BME280_humidity;BME280_pressure;Samples;Min_cycle;Max_cycle;Signal;HPM_P1;HPM_P2
2023/01/23 00:00:17;;;;;;;2.42;0.60;;;;;;;11.81;100.00;101768.63;2099296;28;20713;-72
2023/01/23 00:01:40;;;;;;;3.25;0.50;;;;;;;11.81;100.00;101773.91;2109660;28;20051;-72
2023/01/23 00:03:01;;;;;;;1.27;0.38;;;;;;;11.79;100.00;101768.59;2099763;28;20044;-72
2023/01/23 00:04:23;;;;;;;0.75;0.32;;;;;;;11.78;100.00;101760.59;2106989;28;20044;-72
2023/01/23 00:05:45;;;;;;;1.10;0.50;;;;;;;11.77;100.00;101765.00;2111693;28;20036;-73
2023/01/23 00:07:07;;;;;;;1.75;0.63;;;;;;;11.78;100.00;101772.06;2107901;28;20055;-72
2023/01/23 00:08:29;;;;;;;1.13;0.60;;;;;;;11.77;100.00;101767.63;2105097;28;20044;-72
2023/01/23 00:09:51;;;;;;;2.17;0.68;;;;;;;11.73;100.00;101763.09;2097362;28;20055;-72
2023/01/23 00:11:15;;;;;;;1.55;0.60;;;;;;;11.70;100.00;101762.09;2094855;28;20056;-72
2023/01/23 00:12:41;;;;;;;2.25;0.70;;;;;;;11.65;100.00;101759.34;2099748;28;20135;-72
2023/01/23 00:14:05;;;;;;;2.40;0.70;;;;;;;11.63;100.00;101762.78;2095217;28;20087;-71
2023/01/23 00:15:26;;;;;;;1.17;0.50;;;;;;;11.59;100.00;101770.66;2102350;28;20695;-72
2023/01/23 00:16:48;;;;;;;2.50;0.55;;;;;;;11.58;100.00;101760.03;2106150;28;20068;-72
2023/01/23 00:18:09;;;;;;;0.95;0.60;;;;;;;11.58;100.00;101763.56;2102259;28;20052;-72
2023/01/23 00:19:32;;;;;;;1.63;0.80;;;;;;;11.58;100.00;101758.28;2114444;27;20088;-72
2023/01/23 00:20:53;;;;;;;4.05;0.82;;;;;;;11.60;100.00;101750.41;2114411;28;20044;-72
2023/01/23 00:22:16;;;;;;;3.70;0.80;;;;;;;11.61;100.00;101749.53;2103669;28;20043;-72
2023/01/23 00:23:37;;;;;;;1.10;0.60;;;;;;;11.63;100.00;101746.91;2096902;28;20044;-72
2023/01/23 00:25:00;;;;;;;0.98;0.57;;;;;;;11.62;100.00;101746.03;2100407;28;20040;-72
2023/01/23 00:26:24;;;;;;;0.88;0.40;;;;;;;11.62;100.00;101751.31;2099519;28;20049;-72
2023/01/23 00:27:47;;;;;;;2.58;0.68;;;;;;;11.61;100.00;101759.22;2106987;28;20052;-72
2023/01/23 00:29:10;;;;;;;1.25;0.70;;;;;;;11.61;100.00;101756.59;2103694;28;20160;-71
2023/01/23 00:30:32;;;;;;;1.23;0.60;;;;;;;11.59;100.00;101754.78;2094817;28;20048;-72
2023/01/23 00:31:54;;;;;;;1.42;0.60;;;;;;;11.58;100.00;101752.09;2102861;28;20052;-73
2023/01/23 00:33:16;;;;;;;2.13;0.55;;;;;;;11.58;100.00;101749.44;2103330;28;20044;-71
2023/01/23 00:34:39;;;;;;;1.50;0.68;;;;;;;11.61;100.00;101757.47;2102620;28;20055;-72
2023/01/23 00:36:02;;;;;;;2.88;0.45;;;;;;;11.62;100.00;101753.09;2094582;28;20040;-72
2023/01/23 00:37:27;;;;;;;3.35;0.50;;;;;;;11.65;100.00;101759.34;2100579;28;20040;-71
2023/01/23 00:38:48;;;;;;;1.92;0.43;;;;;;;11.67;100.00;101754.09;2086287;28;20118;-73
2023/01/23 00:40:12;;;;;;;1.60;0.50;;;;;;;11.69;100.00;101761.19;2091354;28;20506;-72
2023/01/23 00:41:34;;;;;;;1.83;0.40;;;;;;;11.71;100.00;101755.97;2099825;28;20044;-72
2023/01/23 00:42:57;;;;;;;1.00;0.60;;;;;;;11.73;100.00;101760.44;2102458;28;20059;-72
2023/01/23 00:44:21;;;;;;;1.23;0.70;;;;;;;11.77;100.00;101757.06;2102303;28;20044;-72
2023/01/23 00:45:42;;;;;;;2.08;0.52;;;;;;;11.76;100.00;101755.25;2102105;28;20078;-71
2023/01/23 00:47:05;;;;;;;1.27;0.68;;;;;;;11.77;100.00;101754.41;2103344;28;20064;-73
2023/01/23 00:48:26;;;;;;;1.55;0.47;;;;;;;11.77;100.00;101748.22;2094547;28;20110;-72
2023/01/23 00:49:49;;;;;;;2.33;0.63;;;;;;;11.76;100.00;101746.44;2094137;28;20428;-72
2023/01/23 00:51:10;;;;;;;2.47;0.73;;;;;;;11.77;100.00;101750.88;2112219;27;20051;-73
2023/01/23 00:52:33;;;;;;;1.52;0.65;;;;;;;11.77;100.00;101751.75;2112879;28;20048;-72
2023/01/23 00:53:54;;;;;;;1.67;0.65;;;;;;;11.78;100.00;101748.28;2110009;28;20847;-72
2023/01/23 00:55:17;;;;;;;2.83;0.60;;;;;;;11.80;100.00;101751.88;2111151;28;20139;-72
2023/01/23 00:56:40;;;;;;;0.93;0.52;;;;;;;11.80;100.00;101753.59;2111112;28;20047;-72
2023/01/23 00:58:01;;;;;;;1.73;0.80;;;;;;;11.79;100.00;101747.41;2098529;28;20041;-71
2023/01/23 00:59:25;;;;;;;0.95;0.50;;;;;;;11.78;100.00;101747.38;2104231;28;20469;-72
2023/01/23 01:00:46;;;;;;;1.05;0.50;;;;;;;11.77;100.00;101749.13;2109434;28;20353;-72
2023/01/23 01:02:08;;;;;;;1.85;0.45;;;;;;;11.80;100.00;101749.22;2096118;28;20083;-71
2023/01/23 01:03:29;;;;;;;2.53;0.60;;;;;;;11.83;100.00;101761.59;2099759;28;20669;-72
2023/01/23 01:04:52;;;;;;;0.90;0.70;;;;;;;11.84;100.00;101755.47;2094368;28;20045;-72
2023/01/23 01:06:15;;;;;;;2.75;0.88;;;;;;;11.85;100.00;101758.16;2100445;28;20040;-72
2023/01/23 01:07:38;;;;;;;1.23;0.60;;;;;;;11.86;100.00;101757.31;2102853;28;20052;-72
2023/01/23 01:09:00;;;;;;;2.03;0.50;;;;;;;11.83;100.00;101754.56;2092758;28;20048;-72
2023/01/23 01:10:22;;;;;;;2.08;0.63;;;;;;;11.82;100.00;101746.59;2100542;28;20132;-72
2023/01/23 01:11:44;;;;;;;5.47;0.75;;;;;;;11.81;100.00;101755.41;2098876;28;20051;-73
2023/01/23 01:13:07;;;;;;;2.22;0.70;;;;;;;11.78;100.00;101755.31;2102839;28;20047;-72
2023/01/23 01:14:31;;;;;;;1.38;0.50;;;;;;;11.76;100.00;101749.97;2117163;27;20573;-72
2023/01/23 01:15:53;;;;;;;1.35;0.50;;;;;;;11.76;100.00;101754.38;2099359;28;20039;-71
2023/01/23 01:17:15;;;;;;;1.15;0.63;;;;;;;11.77;100.00;101751.75;2091240;28;20075;-72
2023/01/23 01:18:38;;;;;;;1.20;0.47;;;;;;;11.77;100.00;101754.41;2098843;28;20047;-72
2023/01/23 01:19:59;;;;;;;1.00;0.30;;;;;;;11.77;100.00;101754.41;2088499;28;20045;-71
2023/01/23 01:21:22;;;;;;;2.90;0.70;;;;;;;11.78;100.00;101748.28;2102192;28;20044;-72
2023/01/23 01:22:44;;;;;;;2.00;0.70;;;;;;;11.79;100.00;101744.78;2113615;28;20134;-72
2023/01/23 01:24:06;;;;;;;2.47;0.77;;;;;;;11.81;100.00;101744.81;2099388;28;20602;-72
2023/01/23 01:25:30;;;;;;;0.52;0.40;;;;;;;11.79;100.00;101743.88;2099781;28;20078;-71
2023/01/23 01:26:52;;;;;;;3.42;0.60;;;;;;;11.78;100.00;101744.72;2086271;28;20056;-72
2023/01/23 01:28:15;;;;;;;0.73;0.40;;;;;;;11.77;100.00;101743.81;2097370;28;20041;-72
2023/01/23 01:29:39;;;;;;;1.45;0.70;;;;;;;11.78;100.00;101750.91;2094295;28;20087;-72
2023/01/23 01:31:06;;;;;;;1.08;0.50;;;;;;;11.81;100.00;101748.38;2091740;28;20053;-72
2023/01/23 01:32:27;;;;;;;2.70;0.65;;;;;;;11.81;100.00;101748.38;2101066;28;20092;-72
2023/01/23 01:33:50;;;;;;;0.68;0.50;;;;;;;11.79;100.00;101743.88;2096739;28;20048;-72
2023/01/23 01:35:13;;;;;;;1.75;0.60;;;;;;;11.78;100.00;101750.91;2102741;28;20048;-72
2023/01/23 01:36:35;;;;;;;3.53;0.80;;;;;;;11.78;100.00;101755.31;2098760;28;20059;-72
2023/01/23 01:37:58;;;;;;;1.00;0.45;;;;;;;11.78;100.00;101757.94;2105363;28;20058;-71
2023/01/23 01:39:19;;;;;;;2.03;0.60;;;;;;;11.76;100.00;101749.06;2098214;28;20048;-73
2023/01/23 01:40:42;;;;;;;1.27;0.50;;;;;;;11.76;100.00;101755.25;2096057;28;20413;-72
2023/01/23 01:42:04;;;;;;;2.17;0.60;;;;;;;11.78;100.00;101755.31;2106621;28;20056;-72
2023/01/23 01:43:26;;;;;;;1.45;0.65;;;;;;;11.78;100.00;101753.56;2102519;28;20069;-73
2023/01/23 01:44:55;;;;;;;1.58;0.80;;;;;;;11.81;100.00;101761.59;2090169;28;20581;-72
2023/01/23 01:46:19;;;;;;;5.32;0.80;;;;;;;11.82;100.00;101759.81;2096022;28;20570;-72
2023/01/23 01:47:41;;;;;;;0.85;0.70;;;;;;;11.81;100.00;101763.34;2095550;28;20123;-72
2023/01/23 01:49:11;;;;;;;2.40;0.60;;;;;;;11.81;100.00;101760.69;2097020;28;20415;-71
2023/01/23 01:50:34;;;;;;;1.52;0.60;;;;;;;11.78;100.00;101752.66;2103736;28;20097;-72
2023/01/23 01:52:01;;;;;;;3.88;0.90;;;;;;;11.77;100.00;101753.50;2107188;28;20048;-72
2023/01/23 01:53:26;;;;;;;0.88;0.55;;;;;;;11.76;100.00;101752.63;2102784;28;20105;-72
2023/01/23 01:54:52;;;;;;;1.65;0.50;;;;;;;11.74;100.00;101749.06;2110366;28;20142;-72
2023/01/23 01:56:14;;;;;;;1.17;0.55;;;;;;;11.74;100.00;101764.03;2102090;28;20706;-72
2023/01/23 01:57:41;;;;;;;2.80;0.88;;;;;;;11.74;100.00;101750.81;2110856;28;20435;-73
2023/01/23 01:59:05;;;;;;;1.75;0.40;;;;;;;11.73;100.00;101755.16;2096016;28;20047;-72
2023/01/23 02:00:28;;;;;;;0.88;0.60;;;;;;;11.71;100.00;101754.22;2110816;28;20052;-72
2023/01/23 02:01:55;;;;;;;2.17;0.40;;;;;;;11.72;100.00;101763.03;2102326;28;20067;-73
2023/01/23 02:03:18;;;;;;;2.38;0.70;;;;;;;11.70;100.00;101751.53;2104996;28;20047;-72
2023/01/23 02:04:44;;;;;;;0.93;0.57;;;;;;;11.69;100.00;101760.31;2085573;28;20162;-72
2023/01/23 02:06:06;;;;;;;1.85;0.52;;;;;;;11.68;100.00;101758.53;2108949;28;20080;-72
2023/01/23 02:07:31;;;;;;;;;;;;;;;11.63;100.00;101760.13;2111168;28;20039;-72
2023/01/23 02:09:02;;;;;;;2.28;0.70;;;;;;;11.65;100.00;101761.09;2104810;28;19970;-72
2023/01/23 02:10:24;;;;;;;1.17;0.45;;;;;;;11.66;100.00;101762.88;2111816;28;20462;-72
2023/01/23 02:11:47;;;;;;;1.15;0.73;;;;;;;11.67;100.00;101760.28;2101650;28;20063;-72
2023/01/23 02:13:20;;;;;;;4.07;0.90;;;;;;;11.67;100.00;101760.28;2098877;28;20134;-72
2023/01/23 02:14:43;;;;;;;1.13;0.60;;;;;;;11.66;100.00;101755.84;2107198;28;20044;-72
2023/01/23 02:16:08;;;;;;;0.98;0.55;;;;;;;11.65;100.00;101759.34;2086012;28;20083;-72
2023/01/23 02:17:32;;;;;;;1.20;0.65;;;;;;;11.63;100.00;101754.84;2083849;28;20443;-72
2023/01/23 02:18:59;;;;;;;1.45;0.77;;;;;;;11.62;100.00;101753.09;2092513;28;20631;-71
2023/01/23 02:20:23;;;;;;;2.35;0.90;;;;;;;11.59;100.00;101757.44;2103000;28;20439;-72
2023/01/23 02:21:49;;;;;;;2.17;0.80;;;;;;;11.58;100.00;101753.00;2092022;28;20087;-71
2023/01/23 02:23:20;;;;;;;2.28;0.80;;;;;;;11.58;100.00;101762.66;2094321;28;20048;-72
2023/01/23 02:24:51;;;;;;;0.82;0.57;;;;;;;11.58;100.00;101760.03;2095396;28;20043;-72
2023/01/23 02:26:18;;;;;;;2.85;1.33;;;;;;;11.56;100.00;101759.06;2107261;28;20066;-73
2023/01/23 02:27:41;;;;;;;3.90;1.60;;;;;;;11.52;100.00;101760.75;2100029;28;20143;-72
2023/01/23 02:29:03;;;;;;;2.30;1.40;;;;;;;11.52;100.00;101758.13;2090626;28;20064;-72
2023/01/23 02:30:29;;;;;;;2.47;1.20;;;;;;;11.51;100.00;101755.41;2094509;28;20060;-71
2023/01/23 02:31:52;;;;;;;20.45;8.13;;;;;;;11.50;100.00;101754.53;2099522;28;20598;-72
2023/01/23 02:33:44;;;;;;;11.10;4.75;;;;;;;11.49;100.00;101758.00;2094135;28;20055;-73
2023/01/23 02:35:11;;;;;;;4.45;1.45;;;;;;;11.50;100.00;101754.53;2096358;28;20052;-72
2023/01/23 02:36:34;;;;;;;2.92;1.40;;;;;;;11.48;100.00;101756.25;2086416;28;20470;-72
2023/01/23 02:38:03;;;;;;;1.80;1.30;;;;;;;11.52;100.00;101765.16;2091813;28;20131;-73
2023/01/23 02:39:26;;;;;;;2.65;1.83;;;;;;;11.53;100.00;101762.56;2094207;28;20051;-72
2023/01/23 02:40:49;;;;;;;2.40;1.58;;;;;;;11.53;100.00;101764.31;2091227;28;20352;-72
2023/01/23 02:42:16;;;;;;;2.70;1.85;;;;;;;11.53;100.00;101756.38;2083616;28;20090;-72
2023/01/23 02:43:48;;;;;;;3.15;1.83;;;;;;;11.54;100.00;101761.72;2100422;28;20044;-72
2023/01/23 02:45:10;;;;;;;5.45;3.50;;;;;;;11.55;100.00;101767.88;2091814;28;20123;-72
2023/01/23 02:46:31;;;;;;;3.17;2.08;;;;;;;11.55;100.00;101771.41;2105660;28;20108;-72
2023/01/23 02:47:54;;;;;;;4.95;3.88;;;;;;;11.56;100.00;101772.28;2101203;28;20139;-72
2023/01/23 02:49:17;;;;;;;4.78;3.35;;;;;;;11.57;100.00;101775.00;2093034;28;20387;-72
2023/01/23 02:50:38;;;;;;;7.55;6.50;;;;;;;11.58;100.00;101773.25;2097840;28;20143;-72
2023/01/23 02:52:02;;;;;;;7.32;5.63;;;;;;;11.56;100.00;101775.84;2110361;28;20460;-72
2023/01/23 02:53:24;;;;;;;6.15;3.95;;;;;;;11.58;100.00;101775.91;2102530;28;20048;-72
2023/01/23 02:54:47;;;;;;;6.05;3.10;;;;;;;11.57;100.00;101774.09;2099054;28;20056;-73
2023/01/23 02:56:09;;;;;;;3.72;2.55;;;;;;;11.54;100.00;101774.94;2103271;28;20041;-73
2023/01/23 02:57:33;;;;;;;0.95;0.73;;;;;;;11.51;100.00;101779.22;2096726;28;20052;-72
2023/01/23 03:00:35;;;;;;;3.47;1.17;;;;;;;11.37;100.00;101785.84;2099347;28;20055;-72
2023/01/23 03:01:57;;;;;;;2.08;1.02;;;;;;;11.31;100.00;101780.41;2085335;28;20484;-72
2023/01/23 03:03:18;;;;;;;3.17;1.38;;;;;;;11.22;100.00;101788.06;2093931;28;20048;-72
2023/01/23 03:04:41;;;;;;;4.93;1.35;;;;;;;11.14;100.00;101786.09;2098816;28;20499;-72
2023/01/23 03:06:02;;;;;;;2.35;1.00;;;;;;;11.10;100.00;101783.31;2110576;28;20522;-72
2023/01/23 03:07:25;;;;;;;3.90;1.30;;;;;;;11.04;100.00;101784.03;2105746;28;20131;-72
2023/01/23 03:08:48;;;;;;;4.35;1.20;;;;;;;11.01;100.00;101790.97;2102946;28;20152;-72
2023/01/23 03:10:12;;;;;;;3.85;2.00;;;;;;;11.02;100.00;101791.03;2103627;28;20058;-72
2023/01/23 03:11:39;;;;;;;4.05;2.72;;;;;;;11.04;100.00;101791.03;2109877;28;20045;-72
2023/01/23 03:13:06;;;;;;;2.60;1.92;;;;;;;11.08;100.00;101791.22;2102817;28;20048;-71
2023/01/23 03:14:31;;;;;;;3.85;1.88;;;;;;;11.11;100.00;101793.91;2095117;28;20037;-71
2023/01/23 03:15:53;;;;;;;1.83;1.38;;;;;;;11.14;100.00;101790.50;2093437;28;20264;-72
2023/01/23 03:17:15;;;;;;;2.58;1.10;;;;;;;11.12;100.00;101787.78;2100318;28;20056;-73
2023/01/23 03:18:37;;;;;;;1.88;0.90;;;;;;;11.09;100.00;101803.53;2095507;28;20040;-72
2023/01/23 03:20:00;;;;;;;4.05;1.00;;;;;;;11.04;100.00;101794.59;2103422;28;20056;-72
2023/01/23 03:21:21;;;;;;;1.73;0.85;;;;;;;11.03;100.00;101799.81;2097938;28;20557;-73
2023/01/23 03:22:44;;;;;;;3.67;0.90;;;;;;;11.00;100.00;101794.47;2095281;28;20045;-72
2023/01/23 03:24:06;;;;;;;2.17;1.02;;;;;;;10.98;100.00;101796.16;2094018;28;20140;-73
2023/01/23 03:25:28;;;;;;;1.90;1.00;;;;;;;10.98;100.00;101797.03;2100883;28;20097;-72
2023/01/23 03:26:52;;;;;;;1.65;0.70;;;;;;;11.01;100.00;101797.16;2101058;28;20044;-73
2023/01/23 03:30:15;;;;;;;1.95;0.85;;;;;;;11.07;100.00;101793.78;2064184;28;20492;-71
2023/01/23 03:31:37;;;;;;;3.10;1.05;;;;;;;11.10;100.00;101801.78;2122296;27;20047;-72
2023/01/23 03:32:59;;;;;;;2.55;1.10;;;;;;;11.11;100.00;101796.56;2105327;28;20169;-73
2023/01/23 03:34:24;;;;;;;1.42;0.85;;;;;;;11.14;100.00;101793.13;2097564;28;20056;-73
2023/01/23 03:35:47;;;;;;;1.60;0.75;;;;;;;11.15;100.00;101802.84;2109656;28;20044;-72
2023/01/23 03:37:11;;;;;;;1.15;0.60;;;;;;;11.17;100.00;101803.78;2111382;28;20056;-72
2023/01/23 03:38:33;;;;;;;2.00;0.65;;;;;;;11.21;100.00;101813.59;2104122;28;20077;-73
2023/01/23 03:41:37;;;;;;;3.10;1.00;;;;;;;11.24;100.00;101816.31;2096822;28;20492;-72
2023/01/23 03:42:58;;;;;;;1.23;0.73;;;;;;;11.27;100.00;101828.75;2094570;28;20143;-73
2023/01/23 03:44:24;;;;;;;1.25;0.70;;;;;;;11.26;100.00;101822.56;2094157;28;20041;-73
2023/01/23 03:45:46;;;;;;;2.28;1.08;;;;;;;11.25;100.00;101828.69;2095485;28;20059;-73
2023/01/23 03:47:09;;;;;;;1.52;0.98;;;;;;;11.21;100.00;101828.56;2084772;28;20104;-72
2023/01/23 03:48:31;;;;;;;1.40;0.73;;;;;;;11.14;100.00;101823.09;2095056;28;20373;-72
2023/01/23 03:49:54;;;;;;;4.40;2.13;;;;;;;11.08;100.00;101822.91;2094205;28;20143;-72
2023/01/23 03:51:15;;;;;;;4.28;2.92;;;;;;;11.02;100.00;101825.38;2088835;28;20119;-72
2023/01/23 03:52:38;;;;;;;3.47;1.30;;;;;;;10.98;100.00;101828.75;2083765;28;20033;-72
2023/01/23 03:54:00;;;;;;;1.08;0.70;;;;;;;10.95;100.00;101825.13;2096583;28;20044;-72
2023/01/23 03:55:22;;;;;;;3.22;0.90;;;;;;;10.90;100.00;101832.00;2090192;28;20037;-72
2023/01/23 03:56:44;;;;;;;1.33;1.00;;;;;;;10.88;100.00;101833.72;2100670;28;20570;-72
2023/01/23 03:58:20;;;;;;;1.75;1.00;;;;;;;10.84;100.00;101832.69;2096964;28;20614;-72
2023/01/23 03:59:44;;;;;;;1.75;0.90;;;;;;;10.84;100.00;101835.34;2093584;28;20048;-72
2023/01/23 04:01:08;;;;;;;2.47;0.82;;;;;;;10.84;100.00;101837.97;2107050;28;20074;-72
2023/01/23 04:02:34;;;;;;;4.53;1.00;;;;;;;10.83;100.00;101833.53;2103910;28;20130;-72
2023/01/23 04:03:56;;;;;;;2.95;0.95;;;;;;;10.81;100.00;101835.25;2105598;28;20646;-73
2023/01/23 04:05:19;;;;;;;2.90;0.65;;;;;;;10.79;100.00;101843.13;2097504;28;20052;-72
2023/01/23 04:06:40;;;;;;;1.67;0.88;;;;;;;10.79;100.00;101842.22;2100679;28;20093;-72
2023/01/23 04:08:03;;;;;;;2.25;0.70;;;;;;;10.77;100.00;101841.28;2097084;28;20048;-72
2023/01/23 04:09:26;;;;;;;1.45;0.63;;;;;;;10.75;100.00;101841.25;2100447;28;20071;-72
2023/01/23 04:10:51;;;;;;;3.53;1.05;;;;;;;10.72;100.00;101838.50;2103738;28;20102;-72
2023/01/23 04:12:14;;;;;;;2.75;1.67;;;;;;;10.70;100.00;101836.63;2100751;28;20102;-71
2023/01/23 04:13:40;;;;;;;18.38;10.98;;;;;;;10.67;100.00;101847.13;2106197;28;20071;-72
2023/01/23 04:15:05;;;;;;;15.18;7.75;;;;;;;10.62;100.00;101854.91;2102211;28;20036;-72
2023/01/23 04:16:27;;;;;;;9.50;5.05;;;;;;;10.58;100.00;101845.06;2109289;28;20072;-72
2023/01/23 04:17:48;;;;;;;10.02;6.22;;;;;;;10.53;100.00;101846.66;2103009;28;20055;-72
2023/01/23 04:19:11;;;;;;;12.10;6.90;;;;;;;10.50;100.00;101848.31;2094140;28;20048;-72
2023/01/23 04:20:32;;;;;;;11.43;6.28;;;;;;;10.48;100.00;101852.66;2091625;28;20081;-72
2023/01/23 04:21:55;;;;;;;8.23;4.20;;;;;;;10.45;100.00;101858.72;2093475;28;20313;-72
2023/01/23 04:23:16;;;;;;;7.20;4.07;;;;;;;10.44;100.00;101856.00;2109056;28;20051;-72
2023/01/23 04:24:39;;;;;;;7.88;3.90;;;;;;;10.45;100.00;101855.16;2102049;28;20044;-72
2023/01/23 04:26:01;;;;;;;5.63;3.42;;;;;;;10.44;100.00;101850.72;2101976;28;20074;-72
2023/01/23 04:27:24;;;;;;;5.80;2.45;;;;;;;10.42;100.00;101858.63;2102868;28;20053;-72
2023/01/23 04:28:49;;;;;;;3.85;1.80;;;;;;;10.40;100.00;101855.03;2101131;28;20048;-72
2023/01/23 04:30:12;;;;;;;4.85;2.40;;;;;;;10.42;100.00;101857.72;2092238;28;20118;-71
2023/01/23 04:31:35;;;;;;;4.07;2.13;;;;;;;10.39;100.00;101854.13;2086717;28;20053;-72
2023/01/23 04:32:57;;;;;;;4.10;1.75;;;;;;;10.39;100.00;101858.50;2092295;28;20473;-72
2023/01/23 04:34:20;;;;;;;4.13;2.05;;;;;;;10.38;100.00;101859.34;2098666;28;20051;-72
2023/01/23 04:35:49;;;;;;;2.67;1.75;;;;;;;10.39;100.00;101864.69;2095098;28;20079;-72
2023/01/23 04:37:11;;;;;;;3.50;1.70;;;;;;;10.39;100.00;101858.50;2101912;28;20048;-73
2023/01/23 04:38:34;;;;;;;3.13;1.98;;;;;;;10.41;100.00;101855.91;2103190;28;20063;-72
2023/01/23 04:40:13;;;;;;;4.90;2.20;;;;;;;10.39;100.00;101854.13;2096748;28;20511;-73
2023/01/23 04:41:49;;;;;;;4.55;2.67;;;;;;;10.41;100.00;101853.28;2103007;28;20052;-72
2023/01/23 04:43:34;;;;;;;4.35;2.42;;;;;;;10.43;100.00;101851.59;2096879;28;20366;-72
2023/01/23 04:44:58;;;;;;;4.32;2.42;;;;;;;10.43;100.00;101859.53;2088563;28;20056;-73
2023/01/23 04:46:41;;;;;;;6.95;3.33;;;;;;;10.44;100.00;101853.38;2098835;28;20048;-72
2023/01/23 04:48:09;;;;;;;5.68;3.33;;;;;;;10.45;100.00;101863.09;2095086;28;20479;-72
2023/01/23 04:49:33;;;;;;;7.30;3.60;;;;;;;10.47;100.00;101859.66;2106278;28;20040;-73
2023/01/23 04:50:56;;;;;;;5.32;3.63;;;;;;;10.50;100.00;101862.38;2096961;28;20053;-73
2023/01/23 04:52:17;;;;;;;7.15;3.10;;;;;;;10.51;100.00;101858.00;2092092;28;20129;-73
2023/01/23 04:53:48;;;;;;;6.30;2.72;;;;;;;10.53;100.00;101861.59;2105416;28;20051;-73
2023/01/23 04:55:10;;;;;;;5.60;2.67;;;;;;;10.54;100.00;101863.41;2094433;28;20049;-73
2023/01/23 04:56:33;;;;;;;4.88;3.08;;;;;;;10.54;100.00;101859.03;2094494;28;20506;-73
2023/01/23 04:57:58;;;;;;;6.68;3.55;;;;;;;10.57;100.00;101863.50;2101032;28;20044;-73
2023/01/23 04:59:22;;;;;;;6.22;3.30;;;;;;;10.58;100.00;101855.63;2098636;28;20097;-73
2023/01/23 05:00:46;;;;;;;7.35;3.72;;;;;;;10.62;100.00;101861.94;2095391;28;20520;-72
2023/01/23 05:02:10;;;;;;;8.27;5.80;;;;;;;10.63;100.00;101859.31;2086025;28;20532;-72
2023/01/23 05:03:36;;;;;;;15.63;10.48;;;;;;;10.64;100.00;101865.50;2098782;28;20071;-72
2023/01/23 05:04:59;;;;;;;16.92;11.27;;;;;;;10.64;100.00;101866.38;2101123;28;20040;-73
2023/01/23 05:06:21;;;;;;;19.42;13.75;;;;;;;10.63;100.00;101867.22;2093855;28;20148;-73
2023/01/23 05:07:43;;;;;;;20.20;15.88;;;;;;;10.62;100.00;101864.56;2092354;28;20136;-72
2023/01/23 05:09:09;;;;;;;25.60;17.42;;;;;;;10.59;100.00;101868.00;2091640;28;20090;-72
2023/01/23 05:10:35;;;;;;;31.30;21.77;;;;;;;10.63;100.00;101871.66;2094605;28;20047;-73
2023/01/23 05:12:01;;;;;;;33.22;24.60;;;;;;;10.67;100.00;101873.53;2100678;28;20434;-72
2023/01/23 05:13:26;;;;;;;33.83;25.05;;;;;;;10.68;100.00;101864.75;2100306;28;20068;-73
2023/01/23 05:14:48;;;;;;;33.22;24.00;;;;;;;10.70;100.00;101876.25;2097523;28;20565;-72
2023/01/23 05:16:12;;;;;;;30.65;22.63;;;;;;;10.69;100.00;101874.47;2096257;28;20048;-72
2023/01/23 05:18:11;;;;;;;30.67;24.10;;;;;;;10.64;100.00;101871.66;2105040;28;20080;-73
2023/01/23 05:19:34;;;;;;;40.03;28.00;;;;;;;10.64;100.00;101881.34;2103144;28;20203;-72
2023/01/23 05:20:58;;;;;;;30.63;20.77;;;;;;;10.68;100.00;101876.22;2100449;28;20101;-73
2023/01/23 05:22:22;;;;;;;23.15;15.35;;;;;;;10.76;100.00;101873.84;2099168;28;20059;-72
2023/01/23 05:23:44;;;;;;;12.70;9.63;;;;;;;10.84;100.00;101887.28;2095476;28;20092;-72
2023/01/23 05:25:09;;;;;;;12.70;7.88;;;;;;;10.91;100.00;101886.63;2094232;28;20114;-72
2023/01/23 05:26:30;;;;;;;11.80;7.35;;;;;;;10.94;100.00;101885.00;2102777;28;20130;-73
2023/01/23 05:27:54;;;;;;;10.55;5.68;;;;;;;10.93;100.00;101893.75;2111052;28;20062;-72
2023/01/23 05:29:16;;;;;;;10.68;6.10;;;;;;;10.93;100.00;101893.75;2098411;28;20136;-72
2023/01/23 05:30:49;;;;;;;8.63;5.20;;;;;;;10.97;100.00;101890.38;2097218;28;20062;-72
2023/01/23 05:32:20;;;;;;;6.68;3.70;;;;;;;11.02;100.00;101893.16;2093821;28;20103;-72
2023/01/23 05:33:51;;;;;;;4.85;2.53;;;;;;;11.07;100.00;101896.84;2111903;28;20218;-72
2023/01/23 05:35:15;;;;;;;3.63;2.13;;;;;;;11.10;100.00;101894.28;2115512;27;20061;-72
2023/01/23 05:36:38;;;;;;;5.38;2.88;;;;;;;11.10;100.00;101896.94;2090639;28;20053;-72
2023/01/23 05:38:01;;;;;;;5.63;3.30;;;;;;;11.07;100.00;101892.47;2089291;28;20097;-72
2023/01/23 05:39:23;;;;;;;6.18;3.70;;;;;;;11.05;100.00;101899.44;2096611;28;20146;-72
2023/01/23 05:40:45;;;;;;;6.22;3.85;;;;;;;11.00;100.00;101898.41;2101319;28;20659;-72
2023/01/23 05:42:28;;;;;;;8.73;4.15;;;;;;;10.96;100.00;101900.91;2108526;28;20637;-72
2023/01/23 05:44:25;;;;;;;7.03;3.70;;;;;;;10.89;100.00;101899.81;2085563;28;21713;-73
2023/01/23 05:46:00;;;;;;;7.72;4.72;;;;;;;10.91;100.00;101910.41;2087750;28;20087;-72
2023/01/23 05:47:31;;;;;;;12.55;7.78;;;;;;;10.93;100.00;101906.97;2100159;28;20044;-72
2023/01/23 05:48:56;;;;;;;12.18;6.93;;;;;;;10.96;100.00;101911.47;2104865;28;20047;-72
2023/01/23 05:50:21;;;;;;;10.90;7.60;;;;;;;10.95;100.00;101917.59;2105012;28;20043;-73
2023/01/23 05:51:44;;;;;;;14.73;9.65;;;;;;;10.92;100.00;101913.09;2109540;28;20059;-72
2023/01/23 05:53:07;;;;;;;21.25;16.27;;;;;;;10.93;100.00;101917.53;2100053;28;20040;-73
2023/01/23 05:54:30;;;;;;;22.73;15.60;;;;;;;10.92;100.00;101915.75;2091682;28;20512;-72
2023/01/23 05:55:53;;;;;;;18.13;13.02;;;;;;;10.92;100.00;101920.13;2094826;28;20036;-72
2023/01/23 05:57:17;;;;;;;16.75;11.25;;;;;;;10.93;100.00;101920.19;2094316;28;20068;-71
2023/01/23 05:58:41;;;;;;;15.25;11.13;;;;;;;10.94;100.00;101924.63;2105434;28;20560;-72
2023/01/23 06:00:19;;;;;;;21.05;14.73;;;;;;;10.97;100.00;101926.44;2102571;28;20052;-72
2023/01/23 06:02:01;;;;;;;18.08;13.13;;;;;;;10.96;100.00;101928.19;2113447;28;20043;-73
2023/01/23 06:03:42;;;;;;;19.80;12.45;;;;;;;10.95;100.00;101930.81;2103848;28;20160;-72
2023/01/23 06:05:24;;;;;;;18.40;11.35;;;;;;;10.96;100.00;101933.47;2103592;28;20507;-72
2023/01/23 06:06:57;;;;;;;12.02;7.05;;;;;;;10.96;100.00;101927.31;2108692;28;20629;-74
2023/01/23 06:08:19;;;;;;;10.55;6.03;;;;;;;10.98;100.00;101936.19;2099375;28;20044;-73
2023/01/23 06:09:42;;;;;;;9.38;5.45;;;;;;;10.99;100.00;101932.69;2099517;28;20044;-73
2023/01/23 06:11:05;;;;;;;7.30;4.40;;;;;;;11.01;100.00;101933.66;2095689;28;20040;-73
2023/01/23 06:12:28;;;;;;;9.82;5.93;;;;;;;11.03;100.00;101935.47;2102088;28;20048;-73
2023/01/23 06:13:49;;;;;;;8.82;4.40;;;;;;;11.12;100.00;101940.16;2110791;28;20047;-73
2023/01/23 06:15:12;;;;;;;10.02;5.07;;;;;;;11.26;100.00;101943.25;2097713;28;20055;-74
2023/01/23 06:16:38;;;;;;;10.10;4.35;;;;;;;11.41;100.00;101938.47;2099653;28;20044;-72
2023/01/23 06:18:01;;;;;;;9.15;4.47;;;;;;;11.56;100.00;101938.91;2094442;28;20122;-74
2023/01/23 06:19:23;;;;;;;7.15;4.03;;;;;;;11.70;100.00;101937.56;2101644;28;20586;-74
2023/01/23 06:20:47;;;;;;;5.70;3.88;;;;;;;11.83;100.00;101947.72;2092918;28;20056;-73
2023/01/23 06:22:10;;;;;;;9.02;4.60;;;;;;;11.97;100.00;101949.00;2091090;28;20392;-73
2023/01/23 06:23:50;;;;;;;8.25;4.45;;;;;;;12.14;100.00;101946.81;2087861;28;20088;-74
2023/01/23 06:25:14;;;;;;;12.13;5.03;;;;;;;12.28;100.00;101950.75;2088280;28;20480;-73
2023/01/23 06:26:35;;;;;;;10.07;6.00;;;;;;;12.42;100.00;101948.50;2096740;28;20067;-74
2023/01/23 06:27:57;;;;;;;11.60;7.32;;;;;;;12.54;100.00;101959.41;2091929;28;20072;-73
2023/01/23 06:29:23;;;;;;;9.63;6.35;;;;;;;12.66;100.00;101957.13;2099321;28;20132;-74
2023/01/23 06:30:46;;;;;;;7.75;4.70;;;;;;;12.79;100.00;101950.38;2102502;28;20047;-73
2023/01/23 06:32:18;;;;;;;;;;;;;;;12.89;100.00;101962.09;2098542;28;20052;-73
2023/01/23 06:33:40;;;;;;;8.50;5.40;;;;;;;13.01;100.00;101963.28;2089635;28;20593;-73